createdAt,value
2023-05-10T00:00:00.722Z,61.97
2023-05-10T00:05:03.878Z,62.88
2023-05-10T00:10:07.571Z,62.53
2023-05-10T00:15:12.173Z,62.75
2023-05-10T00:20:15.172Z,62.47
2023-05-10T00:25:18.222Z,61.67
2023-05-10T00:30:21.309Z,61.49
2023-05-10T00:35:24.414Z,61.57
2023-05-10T00:40:27.637Z,61.38
2023-05-10T00:45:33.891Z,62.53
2023-05-10T00:50:36.938Z,63.50
2023-05-10T00:55:39.897Z,63.65
2023-05-10T01:00:44.844Z,63.54
2023-05-10T01:05:47.887Z,63.83
2023-05-10T01:10:51.049Z,63.81
2023-05-10T01:15:54.371Z,63.35
2023-05-10T01:21:33.085Z,63.16
2023-05-10T01:27:15.999Z,63.17
2023-05-10T01:33:02.441Z,63.01
2023-05-10T01:38:28.885Z,62.85
2023-05-10T01:43:49.380Z,63.17
2023-05-10T01:48:56.102Z,63.35
2023-05-10T01:54:05.723Z,63.62
2023-05-10T01:59:16.471Z,64.02
2023-05-10T02:04:23.108Z,64.22
2023-05-10T02:09:30.980Z,64.78
2023-05-10T02:14:37.744Z,64.71
2023-05-10T02:19:43.122Z,64.43
2023-05-10T02:24:48.622Z,64.95
2023-05-10T02:29:53.474Z,64.99
2023-05-10T02:34:58.531Z,64.58
2023-05-10T02:40:04.687Z,64.19
2023-05-10T02:45:20.723Z,63.33
2023-05-10T02:50:30.253Z,63.03
2023-05-10T02:55:40.071Z,62.90
2023-05-10T03:00:42.928Z,62.83
2023-05-10T03:05:46.975Z,62.81
2023-05-10T03:11:09.426Z,63.15
2023-05-10T03:16:52.487Z,63.12
2023-05-10T03:22:04.724Z,62.12
2023-05-10T03:27:09.359Z,61.13
2023-05-10T03:32:12.389Z,60.14
2023-05-10T03:37:15.364Z,59.38
2023-05-10T03:42:18.936Z,58.57
2023-05-10T03:47:21.811Z,57.41
2023-05-10T03:52:24.778Z,57.09
2023-05-10T03:57:27.615Z,56.81
2023-05-10T04:02:31.454Z,56.77
2023-05-10T04:07:34.384Z,56.29
2023-05-10T04:12:37.336Z,56.08
2023-05-10T04:17:40.233Z,55.17
2023-05-10T04:22:43.189Z,53.69
2023-05-10T04:27:46.011Z,53.04
2023-05-10T04:32:49.091Z,52.31
2023-05-10T04:37:52.032Z,51.83
2023-05-10T04:42:55.518Z,50.38
2023-05-10T04:47:58.402Z,49.72
2023-05-10T04:53:01.529Z,48.44
2023-05-10T04:58:04.352Z,48.17
2023-05-10T05:10:09.896Z,45.99
2023-05-10T05:15:12.821Z,44.81
2023-05-10T05:20:15.933Z,43.19
2023-05-10T05:25:19.310Z,42.74
2023-05-10T05:30:22.195Z,42.74
2023-05-10T05:35:25.464Z,42.69
2023-05-10T05:40:28.324Z,41.44
2023-05-10T05:45:31.150Z,41.45
2023-05-10T05:50:34.044Z,40.28
2023-05-10T05:55:36.936Z,39.76
2023-05-10T06:00:39.892Z,38.53
2023-05-10T06:05:43.111Z,38.47
2023-05-10T06:10:46.719Z,37.76
2023-05-10T06:15:49.546Z,37.46
2023-05-10T06:20:52.837Z,37.22
2023-05-10T06:25:55.884Z,36.85
2023-05-10T06:30:58.894Z,35.84
2023-05-10T06:36:01.914Z,35.49
2023-05-10T06:41:04.860Z,35.51
2023-05-10T06:46:08.436Z,34.97
2023-05-10T06:51:11.615Z,34.35
2023-05-10T06:56:15.177Z,34.00
2023-05-10T07:01:18.168Z,33.44
2023-05-10T07:06:32.389Z,33.41
2023-05-10T07:11:37.311Z,33.10
2023-05-10T07:16:40.312Z,32.21
2023-05-10T07:21:44.430Z,30.54
2023-05-10T07:26:47.283Z,30.56
2023-05-10T07:31:50.916Z,30.42
2023-05-10T07:36:54.182Z,30.52
2023-05-10T07:41:57.564Z,29.00
2023-05-10T07:47:00.728Z,27.85
2023-05-10T07:52:05.579Z,27.62
2023-05-10T07:57:10.549Z,27.49
2023-05-10T08:02:13.562Z,27.16
2023-05-10T08:07:16.640Z,27.38
2023-05-10T08:12:19.848Z,26.71
2023-05-10T08:17:24.686Z,26.82
2023-05-10T08:22:29.144Z,26.58
2023-05-10T08:27:32.739Z,26.63
2023-05-10T08:32:36.446Z,26.08
2023-05-10T08:37:40.619Z,25.90
2023-05-10T08:42:56.513Z,25.89
2023-05-10T08:48:03.202Z,26.27
2023-05-10T08:53:11.952Z,25.57
2023-05-10T08:58:15.574Z,25.21
2023-05-10T09:03:19.164Z,25.88
2023-05-10T09:08:26.431Z,25.25
2023-05-10T09:13:29.839Z,25.29
2023-05-10T09:18:33.145Z,25.02
2023-05-10T09:23:36.177Z,24.92
2023-05-10T09:28:57.734Z,24.82
2023-05-10T09:34:02.493Z,25.06
2023-05-10T09:39:05.799Z,24.50
2023-05-10T09:44:10.388Z,24.52
2023-05-10T09:49:16.023Z,24.61
2023-05-10T09:54:38.734Z,24.63
2023-05-10T09:59:52.313Z,24.77
2023-05-10T10:05:09.883Z,24.54
2023-05-10T10:10:42.472Z,25.13
2023-05-10T10:15:52.958Z,24.80
2023-05-10T10:21:14.086Z,25.05
2023-05-10T10:26:35.301Z,24.70
2023-05-10T10:32:24.931Z,25.08
2023-05-10T10:43:29.573Z,25.22
2023-05-10T10:49:18.670Z,24.96
2023-05-10T10:54:29.518Z,24.82
2023-05-10T10:59:32.718Z,24.73
2023-05-10T11:04:47.687Z,24.91
2023-05-10T11:09:50.933Z,24.51
2023-05-10T11:14:59.074Z,24.57
2023-05-10T11:20:16.253Z,24.67
2023-05-10T11:25:21.446Z,24.42
2023-05-10T11:30:25.688Z,24.49
2023-05-10T11:35:29.273Z,24.44
2023-05-10T11:40:32.153Z,24.35
2023-05-10T11:45:36.158Z,24.17
2023-05-10T11:50:39.322Z,24.02
2023-05-10T11:55:42.333Z,24.01
2023-05-10T12:00:46.479Z,24.00
2023-05-10T12:05:49.674Z,23.86
2023-05-10T12:10:54.540Z,24.02
2023-05-10T12:16:00.892Z,24.13
2023-05-10T12:21:05.465Z,23.72
2023-05-10T12:26:11.586Z,23.56
2023-05-10T12:31:14.889Z,23.49
2023-05-10T12:36:24.194Z,23.60
2023-05-10T12:41:27.244Z,23.18
2023-05-10T12:46:30.648Z,22.89
2023-05-10T12:51:33.831Z,22.93
2023-05-10T12:56:38.167Z,22.84
2023-05-10T13:01:42.557Z,22.22
2023-05-10T13:06:47.425Z,22.33
2023-05-10T13:11:50.822Z,21.95
2023-05-10T13:16:54.936Z,21.49
2023-05-10T13:21:58.259Z,21.68
2023-05-10T13:27:01.745Z,21.58
2023-05-10T13:32:05.297Z,21.92
2023-05-10T13:37:08.359Z,22.19
2023-05-10T13:42:12.119Z,21.94
2023-05-10T13:47:18.129Z,21.84
2023-05-10T13:52:21.269Z,21.64
2023-05-10T13:57:24.977Z,21.25
2023-05-10T14:02:28.703Z,21.50
2023-05-10T14:07:31.892Z,21.14
2023-05-10T14:12:35.224Z,21.31
2023-05-10T14:17:38.673Z,21.12
2023-05-10T14:22:41.986Z,21.26
2023-05-10T14:27:45.293Z,21.09
2023-05-10T14:32:48.477Z,20.83
2023-05-10T14:37:52.502Z,20.86
2023-05-10T14:42:57.824Z,20.93
2023-05-10T14:48:02.134Z,20.83
2023-05-10T14:53:05.105Z,20.94
2023-05-10T14:58:08.010Z,21.15
2023-05-10T15:03:11.107Z,21.40
2023-05-10T15:08:14.349Z,21.01
2023-05-10T15:13:17.561Z,21.51
2023-05-10T15:18:20.591Z,22.17
2023-05-10T15:23:23.965Z,22.51
2023-05-10T15:28:26.851Z,22.77
2023-05-10T15:33:29.777Z,22.75
2023-05-10T15:38:32.626Z,22.64
2023-05-10T15:43:35.458Z,22.89
2023-05-10T15:48:40.198Z,22.83
2023-05-10T15:53:56.367Z,22.62
2023-05-10T15:59:01.863Z,22.93
2023-05-10T16:04:04.852Z,23.39
2023-05-10T16:09:08.723Z,23.46
2023-05-10T16:14:11.720Z,23.65
2023-05-10T16:19:16.042Z,23.53
2023-05-10T16:24:19.065Z,23.56
2023-05-10T16:29:22.013Z,23.76
2023-05-10T16:34:25.452Z,23.91
2023-05-10T16:39:28.375Z,24.23
2023-05-10T16:44:31.460Z,24.50
2023-05-10T16:54:39.613Z,24.64
2023-05-10T16:59:42.727Z,24.63
2023-05-10T17:04:46.237Z,24.87
2023-05-10T17:09:49.172Z,25.02
2023-05-10T17:14:55.327Z,25.05
2023-05-10T17:19:58.810Z,25.08
2023-05-10T17:25:01.869Z,25.27
2023-05-10T17:30:06.048Z,25.40
2023-05-10T17:35:09.174Z,25.51
2023-05-10T17:40:12.807Z,25.67
2023-05-10T17:45:16.729Z,25.74
2023-05-10T17:50:20.003Z,25.85
2023-05-10T17:55:22.835Z,26.02
2023-05-10T18:00:25.969Z,26.16
2023-05-10T18:05:28.960Z,26.54
2023-05-10T18:10:32.424Z,26.77
2023-05-10T18:15:35.477Z,27.32
2023-05-10T18:20:38.402Z,27.72
2023-05-10T18:25:41.349Z,28.01
2023-05-10T18:30:44.309Z,28.32
2023-05-10T18:35:47.453Z,29.15
2023-05-10T18:40:51.179Z,29.32
2023-05-10T18:45:54.401Z,30.05
2023-05-10T18:50:57.300Z,30.08
2023-05-10T18:56:00.263Z,30.13
2023-05-10T19:01:03.337Z,30.66
2023-05-10T19:06:06.428Z,31.50
2023-05-10T19:11:09.362Z,32.08
2023-05-10T19:16:17.076Z,32.81
2023-05-10T19:21:21.378Z,33.22
2023-05-10T19:26:24.463Z,33.13
2023-05-10T19:31:27.850Z,33.86
2023-05-10T19:36:33.272Z,34.78
2023-05-10T19:41:36.211Z,35.04
2023-05-10T19:46:39.178Z,34.71
2023-05-10T19:51:42.179Z,35.88
2023-05-10T19:56:44.993Z,35.91
2023-05-10T20:01:47.835Z,35.76
2023-05-10T20:06:50.719Z,36.44
2023-05-10T20:11:53.670Z,36.15
2023-05-10T20:16:56.818Z,37.06
2023-05-10T20:21:59.927Z,38.13
2023-05-10T20:27:04.609Z,38.86
2023-05-10T20:32:07.525Z,38.63
2023-05-10T20:37:10.403Z,39.29
2023-05-10T20:42:13.233Z,39.85
2023-05-10T20:47:16.987Z,40.03
2023-05-10T20:52:20.183Z,40.38
2023-05-10T20:57:24.846Z,40.28
2023-05-10T21:02:27.834Z,40.96
2023-05-10T21:07:32.890Z,41.51
2023-05-10T21:12:35.827Z,41.69
2023-05-10T21:17:38.656Z,42.70
2023-05-10T21:22:41.534Z,43.31
2023-05-10T21:27:44.636Z,44.72
2023-05-10T21:32:47.640Z,44.31
2023-05-10T21:37:50.461Z,44.37
2023-05-10T21:42:53.375Z,44.85
2023-05-10T21:47:56.486Z,45.26
2023-05-10T21:52:59.768Z,47.43
2023-05-10T21:58:02.635Z,49.25
2023-05-10T22:03:05.864Z,51.27
2023-05-10T22:08:08.978Z,53.76
2023-05-10T22:13:11.803Z,55.95
2023-05-10T22:18:14.678Z,53.61
2023-05-10T22:23:17.487Z,55.37
2023-05-10T22:28:20.462Z,56.30
2023-05-10T22:33:23.288Z,55.29
2023-05-10T22:38:26.238Z,55.91
2023-05-10T22:43:29.157Z,56.71
2023-05-10T22:48:34.594Z,56.58
2023-05-10T22:53:37.566Z,58.31
2023-05-10T22:58:40.584Z,59.42
2023-05-10T23:03:43.443Z,59.24
2023-05-10T23:08:46.223Z,59.44
2023-05-10T23:13:49.288Z,59.82
2023-05-10T23:18:52.168Z,61.00
2023-05-10T23:23:55.061Z,60.63
2023-05-10T23:28:57.879Z,60.33
2023-05-10T23:34:00.699Z,59.96
2023-05-10T23:39:03.627Z,59.08
2023-05-10T23:44:06.709Z,58.19
2023-05-10T23:49:09.588Z,57.53
2023-05-10T23:54:12.472Z,56.54
2023-05-10T23:59:15.498Z,56.08
